sensor_id;sensor_type;location;lat;lon;timestamp;pressure;altitude;pressure_sealevel;temperature;humidity
20955;BME280;10636;19.390;-99.256;2022-09-23T00:02:19;77754.69;;;25.16;36.88
20955;BME280;10636;19.390;-99.256;2022-09-23T00:04:52;77761.34;;;25.15;36.21
20955;BME280;10636;19.390;-99.256;2022-09-23T00:07:20;77773.38;;;25.14;36.73
20955;BME280;10636;19.390;-99.256;2022-09-23T00:09:49;77765.25;;;25.12;36.36
20955;BME280;10636;19.390;-99.256;2022-09-23T00:12:17;77776.53;;;25.09;36.51
20955;BME280;10636;19.390;-99.256;2022-09-23T00:14:48;77780.53;;;25.08;36.62
20955;BME280;10636;19.390;-99.256;2022-09-23T00:17:17;77778.47;;;25.06;36.25
20955;BME280;10636;19.390;-99.256;2022-09-23T00:19:45;77785.72;;;25.03;36.84
20955;BME280;10636;19.390;-99.256;2022-09-23T00:22:16;77784.97;;;25.01;36.82
20955;BME280;10636;19.390;-99.256;2022-09-23T00:24:44;77793.66;;;24.99;36.87
20955;BME280;10636;19.390;-99.256;2022-09-23T00:27:13;77796.19;;;24.95;36.83
20955;BME280;10636;19.390;-99.256;2022-09-23T00:29:41;77799.56;;;24.96;37.00
20955;BME280;10636;19.390;-99.256;2022-09-23T00:32:09;77798.78;;;24.93;36.78
20955;BME280;10636;19.390;-99.256;2022-09-23T00:34:38;77806.78;;;24.91;36.80
20955;BME280;10636;19.390;-99.256;2022-09-23T00:37:06;77819.41;;;24.89;36.92
20955;BME280;10636;19.390;-99.256;2022-09-23T00:39:36;77827.41;;;24.87;36.78
20955;BME280;10636;19.390;-99.256;2022-09-23T00:42:05;77835.44;;;24.87;36.49
20955;BME280;10636;19.390;-99.256;2022-09-23T00:44:46;77839.28;;;24.82;36.84
20955;BME280;10636;19.390;-99.256;2022-09-23T00:47:22;77845.97;;;24.81;36.96
20955;BME280;10636;19.390;-99.256;2022-09-23T00:49:55;77839.22;;;24.80;37.22
20955;BME280;10636;19.390;-99.256;2022-09-23T00:52:27;77857.22;;;24.77;36.85
20955;BME280;10636;19.390;-99.256;2022-09-23T00:54:59;77848.50;;;24.76;37.43
20955;BME280;10636;19.390;-99.256;2022-09-23T00:57:29;77856.47;;;24.74;36.86
20955;BME280;10636;19.390;-99.256;2022-09-23T00:59:58;77857.69;;;24.71;37.23
20955;BME280;10636;19.390;-99.256;2022-09-23T01:02:27;77872.34;;;24.68;37.34
20955;BME280;10636;19.390;-99.256;2022-09-23T01:04:57;77868.19;;;24.65;37.62
20955;BME280;10636;19.390;-99.256;2022-09-23T01:07:25;77877.56;;;24.64;37.50
20955;BME280;10636;19.390;-99.256;2022-09-23T01:09:58;77881.53;;;24.63;37.11
20955;BME280;10636;19.390;-99.256;2022-09-23T01:12:41;77889.50;;;24.61;37.19
20955;BME280;10636;19.390;-99.256;2022-09-23T01:15:16;77881.75;;;24.51;37.06
20955;BME280;10636;19.390;-99.256;2022-09-23T01:17:50;77904.13;;;24.58;37.35
20955;BME280;10636;19.390;-99.256;2022-09-23T01:26:48;77921.38;;;24.53;37.30
20955;BME280;10636;19.390;-99.256;2022-09-23T01:29:51;77932.00;;;24.51;36.84
20955;BME280;10636;19.390;-99.256;2022-09-23T01:32:36;77933.94;;;24.48;36.75
20955;BME280;10636;19.390;-99.256;2022-09-23T01:35:17;77938.50;;;24.46;37.46
20955;BME280;10636;19.390;-99.256;2022-09-23T01:37:55;77947.84;;;24.45;36.99
20955;BME280;10636;19.390;-99.256;2022-09-23T01:40:30;77951.84;;;24.44;37.40
20955;BME280;10636;19.390;-99.256;2022-09-23T01:43:05;77943.72;;;24.42;37.68
20955;BME280;10636;19.390;-99.256;2022-09-23T01:45:39;77945.63;;;24.39;37.38
20955;BME280;10636;19.390;-99.256;2022-09-23T01:48:14;77950.31;;;24.39;37.85
20955;BME280;10636;19.390;-99.256;2022-09-23T01:50:49;77958.97;;;24.37;37.92
20955;BME280;10636;19.390;-99.256;2022-09-23T01:53:30;77966.19;;;24.35;38.33
20955;BME280;10636;19.390;-99.256;2022-09-23T01:56:06;77970.19;;;24.34;38.89
20955;BME280;10636;19.390;-99.256;2022-09-23T01:58:39;77972.97;;;24.36;38.60
20955;BME280;10636;19.390;-99.256;2022-09-23T02:01:11;77969.69;;;24.37;38.83
20955;BME280;10636;19.390;-99.256;2022-09-23T02:03:52;77980.22;;;24.33;39.08
20955;BME280;10636;19.390;-99.256;2022-09-23T02:06:28;77984.78;;;24.31;39.05
20955;BME280;10636;19.390;-99.256;2022-09-23T02:09:01;77993.44;;;24.29;39.00
20955;BME280;10636;19.390;-99.256;2022-09-23T02:11:34;77990.00;;;24.26;38.81
20955;BME280;10636;19.390;-99.256;2022-09-23T02:14:08;77993.28;;;24.25;38.95
20955;BME280;10636;19.390;-99.256;2022-09-23T02:16:45;77997.88;;;24.22;38.97
20955;BME280;10636;19.390;-99.256;2022-09-23T02:19:21;78003.06;;;24.18;39.33
20955;BME280;10636;19.390;-99.256;2022-09-23T02:21:56;77994.84;;;24.14;39.21
20955;BME280;10636;19.390;-99.256;2022-09-23T02:24:30;78005.56;;;24.14;39.91
20955;BME280;10636;19.390;-99.256;2022-09-23T02:27:09;78008.13;;;24.10;40.18
20955;BME280;10636;19.390;-99.256;2022-09-23T02:29:44;78010.63;;;24.06;39.97
20955;BME280;10636;19.390;-99.256;2022-09-23T02:32:18;78007.94;;;24.06;40.11
20955;BME280;10636;19.390;-99.256;2022-09-23T02:34:56;78017.19;;;24.03;40.01
20955;BME280;10636;19.390;-99.256;2022-09-23T02:37:33;78026.00;;;24.06;40.92
20955;BME280;10636;19.390;-99.256;2022-09-23T02:40:12;78025.31;;;24.05;41.28
20955;BME280;10636;19.390;-99.256;2022-09-23T02:42:49;78031.94;;;24.04;41.38
20955;BME280;10636;19.390;-99.256;2022-09-23T02:45:20;78031.94;;;24.04;41.47
20955;BME280;10636;19.390;-99.256;2022-09-23T02:47:52;78030.56;;;24.03;41.69
20955;BME280;10636;19.390;-99.256;2022-09-23T02:50:26;78036.78;;;24.08;41.59
20955;BME280;10636;19.390;-99.256;2022-09-23T02:52:57;78049.56;;;24.09;41.42
20955;BME280;10636;19.390;-99.256;2022-09-23T02:55:28;78040.94;;;24.11;41.87
20955;BME280;10636;19.390;-99.256;2022-09-23T02:57:58;78041.63;;;24.11;42.15
20955;BME280;10636;19.390;-99.256;2022-09-23T03:00:35;78044.84;;;24.08;42.37
20955;BME280;10636;19.390;-99.256;2022-09-23T03:03:22;78044.94;;;24.10;41.83
20955;BME280;10636;19.390;-99.256;2022-09-23T03:05:58;78053.72;;;24.12;42.08
20955;BME280;10636;19.390;-99.256;2022-09-23T03:08:35;78052.44;;;24.13;41.57
20955;BME280;10636;19.390;-99.256;2022-09-23T03:11:09;78052.53;;;24.15;41.95
20955;BME280;10636;19.390;-99.256;2022-09-23T03:13:49;78049.06;;;24.13;41.60
20955;BME280;10636;19.390;-99.256;2022-09-23T03:16:27;78063.75;;;24.12;41.92
20955;BME280;10636;19.390;-99.256;2022-09-23T03:19:07;78062.38;;;24.11;42.43
20955;BME280;10636;19.390;-99.256;2022-09-23T03:21:45;78073.09;;;24.11;42.30
20955;BME280;10636;19.390;-99.256;2022-09-23T03:24:14;78061.53;;;24.06;42.10
20955;BME280;10636;19.390;-99.256;2022-09-23T03:26:45;78069.75;;;24.10;41.70
20955;BME280;10636;19.390;-99.256;2022-09-23T03:29:16;78073.78;;;24.11;41.66
20955;BME280;10636;19.390;-99.256;2022-09-23T03:31:46;78079.16;;;24.11;41.86
20955;BME280;10636;19.390;-99.256;2022-09-23T03:34:18;78076.56;;;24.13;42.19
20955;BME280;10636;19.390;-99.256;2022-09-23T03:36:53;78070.50;;;24.13;41.73
20955;BME280;10636;19.390;-99.256;2022-09-23T03:39:34;78084.69;;;24.15;41.90
20955;BME280;10636;19.390;-99.256;2022-09-23T03:42:09;78072.66;;;24.16;42.20
20955;BME280;10636;19.390;-99.256;2022-09-23T03:44:43;78081.56;;;24.21;42.07
20955;BME280;10636;19.390;-99.256;2022-09-23T03:47:12;78084.31;;;24.23;42.35
20955;BME280;10636;19.390;-99.256;2022-09-23T03:49:45;78095.03;;;24.23;42.10
20955;BME280;10636;19.390;-99.256;2022-09-23T03:52:18;78089.16;;;24.26;42.06
20955;BME280;10636;19.390;-99.256;2022-09-23T03:54:47;78093.16;;;24.25;42.19
20955;BME280;10636;19.390;-99.256;2022-09-23T03:57:16;78095.72;;;24.23;41.72
20955;BME280;10636;19.390;-99.256;2022-09-23T03:59:45;78096.53;;;24.26;42.43
20955;BME280;10636;19.390;-99.256;2022-09-23T04:02:13;78098.50;;;24.25;42.13
20955;BME280;10636;19.390;-99.256;2022-09-23T04:04:42;78097.09;;;24.24;42.62
20955;BME280;10636;19.390;-99.256;2022-09-23T04:07:11;78105.06;;;24.22;41.88
20955;BME280;10636;19.390;-99.256;2022-09-23T04:09:42;78103.78;;;24.23;42.58
20955;BME280;10636;19.390;-99.256;2022-09-23T04:12:13;78105.06;;;24.22;42.95
20955;BME280;10636;19.390;-99.256;2022-09-23T04:14:41;78101.09;;;24.23;42.71
20955;BME280;10636;19.390;-99.256;2022-09-23T04:17:10;78110.44;;;24.22;42.18
20955;BME280;10636;19.390;-99.256;2022-09-23T04:19:39;78108.44;;;24.23;42.44
20955;BME280;10636;19.390;-99.256;2022-09-23T04:22:08;78104.38;;;24.22;42.30
20955;BME280;10636;19.390;-99.256;2022-09-23T04:24:36;78101.03;;;24.21;43.16
20955;BME280;10636;19.390;-99.256;2022-09-23T04:27:06;78109.75;;;24.22;43.08
20955;BME280;10636;19.390;-99.256;2022-09-23T04:29:35;78111.75;;;24.21;42.34
20955;BME280;10636;19.390;-99.256;2022-09-23T04:32:03;78114.41;;;24.21;42.43
20955;BME280;10636;19.390;-99.256;2022-09-23T04:34:31;78113.03;;;24.20;42.72
20955;BME280;10636;19.390;-99.256;2022-09-23T04:37:00;78114.31;;;24.19;43.17
20955;BME280;10636;19.390;-99.256;2022-09-23T04:39:28;78113.72;;;24.21;42.57
20955;BME280;10636;19.390;-99.256;2022-09-23T04:41:57;78115.63;;;24.18;42.53
20955;BME280;10636;19.390;-99.256;2022-09-23T04:44:27;78130.31;;;24.17;43.01
20955;BME280;10636;19.390;-99.256;2022-09-23T04:46:55;78120.81;;;24.14;42.77
20955;BME280;10636;19.390;-99.256;2022-09-23T04:49:23;78124.78;;;24.13;43.17
20955;BME280;10636;19.390;-99.256;2022-09-23T04:51:52;78127.38;;;24.11;43.17
20955;BME280;10636;19.390;-99.256;2022-09-23T04:54:21;78120.66;;;24.10;42.78
20955;BME280;10636;19.390;-99.256;2022-09-23T04:56:49;78127.28;;;24.09;42.76
20955;BME280;10636;19.390;-99.256;2022-09-23T04:59:18;78131.38;;;24.10;43.35
20955;BME280;10636;19.390;-99.256;2022-09-23T05:01:48;78125.31;;;24.10;43.15
20955;BME280;10636;19.390;-99.256;2022-09-23T05:04:17;78125.31;;;24.10;42.86
20955;BME280;10636;19.390;-99.256;2022-09-23T05:06:45;78129.97;;;24.09;43.57
20955;BME280;10636;19.390;-99.256;2022-09-23T05:09:15;78129.97;;;24.09;43.64
20955;BME280;10636;19.390;-99.256;2022-09-23T05:11:44;78123.84;;;24.07;43.57
20955;BME280;10636;19.390;-99.256;2022-09-23T05:14:12;78133.94;;;24.08;42.99
20955;BME280;10636;19.390;-99.256;2022-09-23T05:16:41;78133.25;;;24.08;42.93
20955;BME280;10636;19.390;-99.256;2022-09-23T05:19:11;78136.63;;;24.08;43.00
20955;BME280;10636;19.390;-99.256;2022-09-23T05:21:39;78142.59;;;24.07;43.69
20955;BME280;10636;19.390;-99.256;2022-09-23T05:24:08;78140.53;;;24.05;43.14
20955;BME280;10636;19.390;-99.256;2022-09-23T05:26:39;78125.56;;;24.00;43.46
20955;BME280;10636;19.390;-99.256;2022-09-23T05:29:07;78131.69;;;24.03;43.51
20955;BME280;10636;19.390;-99.256;2022-09-23T05:31:36;78143.78;;;24.04;43.75
20955;BME280;10636;19.390;-99.256;2022-09-23T05:34:05;78134.97;;;24.01;43.30
20955;BME280;10636;19.390;-99.256;2022-09-23T05:36:36;78141.03;;;24.02;43.56
20955;BME280;10636;19.390;-99.256;2022-09-23T05:39:05;78144.31;;;24.00;43.91
20955;BME280;10636;19.390;-99.256;2022-09-23T05:41:33;78140.94;;;23.99;43.61
20955;BME280;10636;19.390;-99.256;2022-09-23T05:44:01;78138.97;;;24.00;43.14
20955;BME280;10636;19.390;-99.256;2022-09-23T05:46:30;78143.03;;;24.01;43.58
20955;BME280;10636;19.390;-99.256;2022-09-23T05:48:59;78144.31;;;24.00;43.77
20955;BME280;10636;19.390;-99.256;2022-09-23T05:51:28;78136.19;;;23.98;43.92
20955;BME280;10636;19.390;-99.256;2022-09-23T05:53:59;78132.13;;;23.97;43.35
20955;BME280;10636;19.390;-99.256;2022-09-23T05:56:28;78136.19;;;23.98;43.53
20955;BME280;10636;19.390;-99.256;2022-09-23T05:58:58;78133.41;;;23.96;43.97
20955;BME280;10636;19.390;-99.256;2022-09-23T06:01:28;78135.50;;;23.97;43.85
20955;BME280;10636;19.390;-99.256;2022-09-23T06:03:59;78126.69;;;23.95;44.13
20955;BME280;10636;19.390;-99.256;2022-09-23T06:06:29;78139.41;;;23.94;44.12
20955;BME280;10636;19.390;-99.256;2022-09-23T06:09:01;78139.97;;;23.93;44.12
20955;BME280;10636;19.390;-99.256;2022-09-23T06:11:30;78130.56;;;23.92;43.83
20955;BME280;10636;19.390;-99.256;2022-09-23T06:14:00;78127.00;;;23.87;43.75
20955;BME280;10636;19.390;-99.256;2022-09-23T06:16:30;78127.00;;;23.87;43.80
20955;BME280;10636;19.390;-99.256;2022-09-23T06:18:59;78134.53;;;23.91;44.12
20955;BME280;10636;19.390;-99.256;2022-09-23T06:21:31;78125.03;;;23.88;43.73
20955;BME280;10636;19.390;-99.256;2022-09-23T06:24:02;78121.66;;;23.87;43.88
20955;BME280;10636;19.390;-99.256;2022-09-23T06:26:30;78123.03;;;23.88;43.65
20955;BME280;10636;19.390;-99.256;2022-09-23T06:29:00;78122.97;;;23.86;43.64
20955;BME280;10636;19.390;-99.256;2022-09-23T06:31:29;78120.28;;;23.86;44.19
20955;BME280;10636;19.390;-99.256;2022-09-23T06:33:58;78120.88;;;23.85;44.34
20955;BME280;10636;19.390;-99.256;2022-09-23T06:36:26;78116.84;;;23.84;44.27
20955;BME280;10636;19.390;-99.256;2022-09-23T06:38:54;78115.53;;;23.85;43.80
20955;BME280;10636;19.390;-99.256;2022-09-23T06:41:24;78119.50;;;23.84;44.17
20955;BME280;10636;19.390;-99.256;2022-09-23T06:43:53;78111.47;;;23.84;43.95
20955;BME280;10636;19.390;-99.256;2022-09-23T06:46:21;78115.44;;;23.83;44.42
20955;BME280;10636;19.390;-99.256;2022-09-23T06:48:53;78110.06;;;23.83;43.76
20955;BME280;10636;19.390;-99.256;2022-09-23T06:51:21;78120.78;;;23.83;43.90
20955;BME280;10636;19.390;-99.256;2022-09-23T06:53:49;78120.78;;;23.83;44.53
20955;BME280;10636;19.390;-99.256;2022-09-23T06:56:18;78114.06;;;23.82;43.85
20955;BME280;10636;19.390;-99.256;2022-09-23T06:58:50;78113.34;;;23.81;44.38
20955;BME280;10636;19.390;-99.256;2022-09-23T07:01:22;78118.09;;;23.83;44.11
20955;BME280;10636;19.390;-99.256;2022-09-23T07:03:50;78102.66;;;23.81;44.16
20955;BME280;10636;19.390;-99.256;2022-09-23T07:06:19;78104.63;;;23.81;44.84
20955;BME280;10636;19.390;-99.256;2022-09-23T07:08:47;78105.94;;;23.80;44.41
20955;BME280;10636;19.390;-99.256;2022-09-23T07:11:16;78105.94;;;23.80;44.69
20955;BME280;10636;19.390;-99.256;2022-09-23T07:13:49;78100.59;;;23.80;44.07
20955;BME280;10636;19.390;-99.256;2022-09-23T07:16:17;78104.56;;;23.79;43.88
20955;BME280;10636;19.390;-99.256;2022-09-23T07:18:46;78099.91;;;23.79;44.07
20955;BME280;10636;19.390;-99.256;2022-09-23T07:21:16;78096.53;;;23.79;44.11
20955;BME280;10636;19.390;-99.256;2022-09-23T07:23:46;78091.75;;;23.77;44.29
20955;BME280;10636;19.390;-99.256;2022-09-23T07:26:16;78087.09;;;23.78;44.76
20955;BME280;10636;19.390;-99.256;2022-09-23T07:28:45;78083.03;;;23.77;44.67
20955;BME280;10636;19.390;-99.256;2022-09-23T07:31:16;78074.56;;;23.66;44.55
20955;BME280;10636;19.390;-99.256;2022-09-23T07:33:45;78082.94;;;23.74;44.73
20955;BME280;10636;19.390;-99.256;2022-09-23T07:36:15;78080.88;;;23.73;44.47
20955;BME280;10636;19.390;-99.256;2022-09-23T07:38:44;78070.88;;;23.73;44.58
20955;BME280;10636;19.390;-99.256;2022-09-23T07:41:15;78072.75;;;23.71;44.32
20955;BME280;10636;19.390;-99.256;2022-09-23T07:43:44;78064.81;;;23.73;44.94
20955;BME280;10636;19.390;-99.256;2022-09-23T07:46:15;78067.41;;;23.71;44.99
20955;BME280;10636;19.390;-99.256;2022-09-23T07:48:44;78073.44;;;23.71;44.28
20955;BME280;10636;19.390;-99.256;2022-09-23T07:51:16;78059.97;;;23.69;44.59
20955;BME280;10636;19.390;-99.256;2022-09-23T07:53:46;78061.34;;;23.70;44.91
20955;BME280;10636;19.390;-99.256;2022-09-23T07:56:15;78061.28;;;23.68;44.34
20955;BME280;10636;19.390;-99.256;2022-09-23T07:58:44;78065.94;;;23.68;44.21
20955;BME280;10636;19.390;-99.256;2022-09-23T08:01:26;78063.94;;;23.68;44.68
20955;BME280;10636;19.390;-99.256;2022-09-23T08:03:57;78059.88;;;23.67;45.19
20955;BME280;10636;19.390;-99.256;2022-09-23T08:06:26;78062.53;;;23.67;45.08
20955;BME280;10636;19.390;-99.256;2022-09-23T08:08:56;78062.47;;;23.65;45.23
20955;BME280;10636;19.390;-99.256;2022-09-23T08:11:26;78055.13;;;23.66;44.83
20955;BME280;10636;19.390;-99.256;2022-09-23T08:13:56;78055.22;;;23.68;44.72
20955;BME280;10636;19.390;-99.256;2022-09-23T08:16:26;78051.84;;;23.67;45.09
20955;BME280;10636;19.390;-99.256;2022-09-23T08:18:55;78051.84;;;23.67;45.08
20955;BME280;10636;19.390;-99.256;2022-09-23T08:21:25;78045.09;;;23.66;44.98
20955;BME280;10636;19.390;-99.256;2022-09-23T08:23:53;78039.06;;;23.66;45.13
20955;BME280;10636;19.390;-99.256;2022-09-23T08:26:21;78028.34;;;23.66;44.48
20955;BME280;10636;19.390;-99.256;2022-09-23T08:28:50;78027.66;;;23.65;44.78
20955;BME280;10636;19.390;-99.256;2022-09-23T08:31:20;78030.94;;;23.64;45.34
20955;BME280;10636;19.390;-99.256;2022-09-23T08:33:55;78024.91;;;23.63;44.60
20955;BME280;10636;19.390;-99.256;2022-09-23T08:36:24;78023.59;;;23.64;44.74
20955;BME280;10636;19.390;-99.256;2022-09-23T08:38:53;78022.22;;;23.63;45.25
20955;BME280;10636;19.390;-99.256;2022-09-23T08:41:28;78015.47;;;23.62;45.32
20955;BME280;10636;19.390;-99.256;2022-09-23T08:44:03;78020.81;;;23.62;44.54
20955;BME280;10636;19.390;-99.256;2022-09-23T08:46:35;78018.16;;;23.62;45.17
20955;BME280;10636;19.390;-99.256;2022-09-23T08:49:07;78012.69;;;23.60;44.94
20955;BME280;10636;19.390;-99.256;2022-09-23T08:51:44;78012.09;;;23.62;44.67
20955;BME280;10636;19.390;-99.256;2022-09-23T08:54:15;78016.75;;;23.61;45.22
20955;BME280;10636;19.390;-99.256;2022-09-23T08:56:47;78011.41;;;23.61;44.56
20955;BME280;10636;19.390;-99.256;2022-09-23T08:59:21;78016.06;;;23.61;45.31
20955;BME280;10636;19.390;-99.256;2022-09-23T09:01:59;78022.72;;;23.60;44.69
20955;BME280;10636;19.390;-99.256;2022-09-23T09:04:38;78008.63;;;23.59;45.32
20955;BME280;10636;19.390;-99.256;2022-09-23T09:07:13;78020.66;;;23.58;45.00
20955;BME280;10636;19.390;-99.256;2022-09-23T09:09:46;78015.88;;;23.57;44.87
20955;BME280;10636;19.390;-99.256;2022-09-23T09:12:19;78015.19;;;23.56;45.24
20955;BME280;10636;19.390;-99.256;2022-09-23T09:14:56;77999.13;;;23.56;44.70
20955;BME280;10636;19.390;-99.256;2022-09-23T09:17:32;78009.84;;;23.56;45.54
20955;BME280;10636;19.390;-99.256;2022-09-23T09:20:18;78011.25;;;23.57;44.79
20955;BME280;10636;19.390;-99.256;2022-09-23T09:22:55;78005.19;;;23.57;44.57
20955;BME280;10636;19.390;-99.256;2022-09-23T09:25:37;78011.94;;;23.58;45.47
20955;BME280;10636;19.390;-99.256;2022-09-23T09:28:13;78011.25;;;23.57;45.04
20955;BME280;10636;19.390;-99.256;2022-09-23T09:30:43;78011.25;;;23.57;44.63
20955;BME280;10636;19.390;-99.256;2022-09-23T09:33:14;78009.84;;;23.56;45.40
20955;BME280;10636;19.390;-99.256;2022-09-23T09:36:04;78009.84;;;23.56;44.77
20955;BME280;10636;19.390;-99.256;2022-09-23T09:38:34;78009.16;;;23.56;45.27
20955;BME280;10636;19.390;-99.256;2022-09-23T09:41:11;78001.81;;;23.56;45.52
20955;BME280;10636;19.390;-99.256;2022-09-23T09:43:44;77992.41;;;23.55;44.60
20955;BME280;10636;19.390;-99.256;2022-09-23T09:46:49;78000.34;;;23.53;45.22
20955;BME280;10636;19.390;-99.256;2022-09-23T09:49:26;77989.72;;;23.55;45.09
20955;BME280;10636;19.390;-99.256;2022-09-23T09:52:22;77987.03;;;23.55;45.29
20955;BME280;10636;19.390;-99.256;2022-09-23T09:54:51;77994.38;;;23.55;45.44
20955;BME280;10636;19.390;-99.256;2022-09-23T09:57:30;77995.06;;;23.55;45.50
20955;BME280;10636;19.390;-99.256;2022-09-23T10:00:29;77993.69;;;23.54;44.94
20955;BME280;10636;19.390;-99.256;2022-09-23T10:03:02;77992.41;;;23.55;45.21
20955;BME280;10636;19.390;-99.256;2022-09-23T10:05:46;77997.75;;;23.55;44.79
20955;BME280;10636;19.390;-99.256;2022-09-23T10:08:23;78000.44;;;23.55;45.50
20955;BME280;10636;19.390;-99.256;2022-09-23T10:10:59;78008.47;;;23.55;45.53
20955;BME280;10636;19.390;-99.256;2022-09-23T10:13:29;78005.72;;;23.53;44.85
20955;BME280;10636;19.390;-99.256;2022-09-23T10:15:58;78001.03;;;23.54;45.68
20955;BME280;10636;19.390;-99.256;2022-09-23T10:18:31;78004.41;;;23.54;44.62
20955;BME280;10636;19.390;-99.256;2022-09-23T10:21:06;78004.41;;;23.54;44.64
20955;BME280;10636;19.390;-99.256;2022-09-23T10:23:41;78005.72;;;23.53;45.54
20955;BME280;10636;19.390;-99.256;2022-09-23T10:26:12;78011.75;;;23.54;45.35
20955;BME280;10636;19.390;-99.256;2022-09-23T10:28:47;78012.44;;;23.54;44.80
20955;BME280;10636;19.390;-99.256;2022-09-23T10:31:23;78009.06;;;23.54;45.50
20955;BME280;10636;19.390;-99.256;2022-09-23T10:33:53;78011.13;;;23.55;45.10
20955;BME280;10636;19.390;-99.256;2022-09-23T10:36:22;78009.75;;;23.54;45.57
20955;BME280;10636;19.390;-99.256;2022-09-23T10:38:55;78015.72;;;23.53;44.93
20955;BME280;10636;19.390;-99.256;2022-09-23T10:41:54;78014.94;;;23.50;45.27
20955;BME280;10636;19.390;-99.256;2022-09-23T10:44:54;78015.03;;;23.52;45.04
20955;BME280;10636;19.390;-99.256;2022-09-23T10:47:49;78021.78;;;23.53;45.68
20955;BME280;10636;19.390;-99.256;2022-09-23T10:50:34;78013.06;;;23.53;45.79
20955;BME280;10636;19.390;-99.256;2022-09-23T10:53:15;78017.00;;;23.52;46.04
20955;BME280;10636;19.390;-99.256;2022-09-23T10:55:56;78014.31;;;23.52;45.26
20955;BME280;10636;19.390;-99.256;2022-09-23T10:58:51;78013.63;;;23.51;46.23
20955;BME280;10636;19.390;-99.256;2022-09-23T11:01:30;78013.75;;;23.53;45.89
20955;BME280;10636;19.390;-99.256;2022-09-23T11:07:07;78029.13;;;23.53;46.65
20955;BME280;10636;19.390;-99.256;2022-09-23T11:09:51;78039.22;;;23.54;46.28
20955;BME280;10636;19.390;-99.256;2022-09-23T11:12:29;78037.84;;;23.53;46.03
20955;BME280;10636;19.390;-99.256;2022-09-23T11:15:19;78033.84;;;23.54;46.36
20955;BME280;10636;19.390;-99.256;2022-09-23T11:20:47;78044.56;;;23.54;45.89
20955;BME280;10636;19.390;-99.256;2022-09-23T11:23:36;78051.91;;;23.54;45.83
20955;BME280;10636;19.390;-99.256;2022-09-23T11:26:20;78048.53;;;23.53;46.34
20955;BME280;10636;19.390;-99.256;2022-09-23T11:32:09;78040.06;;;23.59;45.99
20955;BME280;10636;19.390;-99.256;2022-09-23T11:34:54;78038.09;;;23.59;46.45
20955;BME280;10636;19.390;-99.256;2022-09-23T11:37:29;78042.16;;;23.60;46.64
20955;BME280;10636;19.390;-99.256;2022-09-23T11:40:02;78044.06;;;23.58;46.66
20955;BME280;10636;19.390;-99.256;2022-09-23T11:42:35;78040.59;;;23.55;46.24
20955;BME280;10636;19.390;-99.256;2022-09-23T11:45:14;78049.13;;;23.52;46.29
20955;BME280;10636;19.390;-99.256;2022-09-23T11:47:48;78061.75;;;23.49;46.46
20955;BME280;10636;19.390;-99.256;2022-09-23T11:50:21;78054.91;;;23.46;46.71
20955;BME280;10636;19.390;-99.256;2022-09-23T11:52:55;78053.53;;;23.45;46.19
20955;BME280;10636;19.390;-99.256;2022-09-23T11:55:31;78054.91;;;23.46;45.75
20955;BME280;10636;19.390;-99.256;2022-09-23T11:58:04;78060.25;;;23.46;45.80
20955;BME280;10636;19.390;-99.256;2022-09-23T12:00:38;78080.28;;;23.45;45.70
20955;BME280;10636;19.390;-99.256;2022-09-23T12:03:14;78073.56;;;23.44;45.61
20955;BME280;10636;19.390;-99.256;2022-09-23T12:05:46;78073.47;;;23.42;45.51
20955;BME280;10636;19.390;-99.256;2022-09-23T12:08:21;78077.44;;;23.41;46.33
20955;BME280;10636;19.390;-99.256;2022-09-23T12:10:57;78086.69;;;23.38;45.86
20955;BME280;10636;19.390;-99.256;2022-09-23T12:13:36;78079.25;;;23.36;45.58
20955;BME280;10636;19.390;-99.256;2022-09-23T12:16:27;78091.94;;;23.36;46.21
20955;BME280;10636;19.390;-99.256;2022-09-23T12:19:07;78089.84;;;23.34;45.97
20955;BME280;10636;19.390;-99.256;2022-09-23T12:21:59;78093.16;;;23.33;45.85
20955;BME280;10636;19.390;-99.256;2022-09-23T12:24:55;78083.75;;;23.32;46.07
20955;BME280;10636;19.390;-99.256;2022-09-23T12:27:31;78091.06;;;23.31;46.35
20955;BME280;10636;19.390;-99.256;2022-09-23T12:30:03;78099.78;;;23.32;46.01
20955;BME280;10636;19.390;-99.256;2022-09-23T12:32:34;78099.78;;;23.32;45.95
20955;BME280;10636;19.390;-99.256;2022-09-23T12:35:04;78106.44;;;23.31;45.96
20955;BME280;10636;19.390;-99.256;2022-09-23T12:37:35;78109.81;;;23.31;45.90
20955;BME280;10636;19.390;-99.256;2022-09-23T12:40:07;78111.78;;;23.31;46.42
20955;BME280;10636;19.390;-99.256;2022-09-23T12:42:42;78118.41;;;23.30;45.80
20955;BME280;10636;19.390;-99.256;2022-09-23T12:45:33;78117.03;;;23.29;45.94
20955;BME280;10636;19.390;-99.256;2022-09-23T12:48:15;78117.03;;;23.29;45.66
20955;BME280;10636;19.390;-99.256;2022-09-23T12:51:19;78119.72;;;23.29;46.74
20955;BME280;10636;19.390;-99.256;2022-09-23T12:54:22;78119.81;;;23.31;46.54
20955;BME280;10636;19.390;-99.256;2022-09-23T12:57:04;78122.59;;;23.33;46.21
20955;BME280;10636;19.390;-99.256;2022-09-23T12:59:58;78121.19;;;23.32;46.20
20955;BME280;10636;19.390;-99.256;2022-09-23T13:02:30;78115.84;;;23.32;46.53
20955;BME280;10636;19.390;-99.256;2022-09-23T13:05:13;78118.53;;;23.32;46.28
20955;BME280;10636;19.390;-99.256;2022-09-23T13:08:04;78110.50;;;23.32;46.65
20955;BME280;10636;19.390;-99.256;2022-09-23T13:10:40;78118.53;;;23.32;46.33
20955;BME280;10636;19.390;-99.256;2022-09-23T13:13:18;78109.81;;;23.31;45.99
20955;BME280;10636;19.390;-99.256;2022-09-23T13:15:48;78113.75;;;23.30;45.76
20955;BME280;10636;19.390;-99.256;2022-09-23T13:18:32;78119.81;;;23.31;46.25
20955;BME280;10636;19.390;-99.256;2022-09-23T13:24:18;78129.13;;;23.30;46.05
20955;BME280;10636;19.390;-99.256;2022-09-23T13:26:49;78133.78;;;23.29;46.12
20955;BME280;10636;19.390;-99.256;2022-09-23T13:29:22;78137.84;;;23.30;46.97
20955;BME280;10636;19.390;-99.256;2022-09-23T13:31:54;78135.88;;;23.31;46.74
20955;BME280;10636;19.390;-99.256;2022-09-23T13:34:25;78137.06;;;23.28;45.98